Time;durP1;ratioP1;P1;durP2;ratioP2;P2;SDS_P1;SDS_P2;PMS_P1;PMS_P2;Temp;Humidity;BMP_temperature;BMP_pressure;BME280_temperature;BME280_humidity;BME280_pressure;Samples;Min_cycle;Max_cycle;Signal;HPM_P1;HPM_P2
2021/03/01 00:00:21;;;;;;;82.97;75.40;;;;;;;2.61;65.99;100192.56;5017522;28;20113;-68
2021/03/01 00:02:47;;;;;;;100.83;91.27;;;;;;;2.46;67.09;100204.59;5018281;28;20260;-68
2021/03/01 00:05:15;;;;;;;104.23;93.97;;;;;;;2.48;66.86;100204.69;5015667;28;20026;-66
2021/03/01 00:07:41;;;;;;;104.43;93.93;;;;;;;2.39;67.27;100209.38;5015549;28;20295;-67
2021/03/01 00:10:08;;;;;;;115.53;103.03;;;;;;;2.37;67.10;100196.69;5018221;28;20030;-67
2021/03/01 00:12:35;;;;;;;108.30;97.00;;;;;;;2.37;67.06;100196.69;5017663;28;20261;-68
2021/03/01 00:15:00;;;;;;;113.13;100.73;;;;;;;2.21;67.50;100201.94;5016761;28;20374;-68
2021/03/01 00:17:26;;;;;;;108.77;97.20;;;;;;;2.14;67.83;100199.97;5017411;28;20033;-67
2021/03/01 00:19:51;;;;;;;93.83;84.73;;;;;;;1.93;68.79;100199.13;5018166;28;20117;-67
2021/03/01 00:22:17;;;;;;;110.93;99.33;;;;;;;1.84;68.69;100197.09;5017205;28;20042;-68
2021/03/01 00:24:43;;;;;;;97.67;88.20;;;;;;;1.73;69.69;100199.19;5018306;28;20021;-68
2021/03/01 00:27:08;;;;;;;92.03;82.83;;;;;;;1.61;69.88;100200.34;5016570;28;20037;-68
2021/03/01 00:29:34;;;;;;;94.40;84.83;;;;;;;1.63;70.16;100197.06;5016097;28;20034;-67
2021/03/01 00:31:59;;;;;;;103.07;91.13;;;;;;;1.68;70.28;100202.31;5016421;28;20038;-67
2021/03/01 00:34:25;;;;;;;101.10;90.37;;;;;;;1.83;69.78;100206.31;5016598;28;20033;-68
2021/03/01 00:36:50;;;;;;;106.10;89.57;;;;;;;1.96;69.88;100192.50;5016438;28;20374;-67
2021/03/01 00:39:16;;;;;;;105.33;94.17;;;;;;;2.11;69.27;100192.28;5017203;28;20037;-67
2021/03/01 00:41:41;;;;;;;111.60;94.67;;;;;;;2.14;69.24;100194.91;5016302;28;20033;-68
2021/03/01 00:44:07;;;;;;;100.53;89.77;;;;;;;2.21;69.38;100187.63;4999030;28;20022;-68
2021/03/01 00:46:32;;;;;;;91.43;81.47;;;;;;;2.28;69.10;100191.28;5016454;28;20145;-68
2021/03/01 00:48:58;;;;;;;96.97;86.50;;;;;;;2.19;69.10;100188.38;5017738;28;20045;-68
2021/03/01 00:51:23;;;;;;;99.60;89.13;;;;;;;2.19;69.60;100185.84;5015041;28;20026;-68
2021/03/01 00:53:49;;;;;;;90.70;81.53;;;;;;;2.32;69.27;100187.19;5017209;28;20034;-67
2021/03/01 00:56:14;;;;;;;80.53;72.77;;;;;;;2.27;68.41;100181.94;5017221;28;20037;-67
2021/03/01 00:58:39;;;;;;;85.17;76.60;;;;;;;2.22;68.31;100180.91;5018216;28;20450;-67
2021/03/01 01:01:05;;;;;;;95.67;85.37;;;;;;;2.21;68.23;100174.09;5016338;28;20025;-66
2021/03/01 01:03:30;;;;;;;93.40;83.60;;;;;;;2.15;68.33;100177.28;5016953;28;20113;-69
2021/03/01 01:05:55;;;;;;;86.00;77.60;;;;;;;2.10;68.69;100171.16;4996689;28;20014;-67
2021/03/01 01:08:21;;;;;;;81.57;74.00;;;;;;;2.08;68.54;100172.75;5017306;28;20113;-67
2021/03/01 01:10:46;;;;;;;78.77;70.83;;;;;;;2.01;69.26;100180.06;4999794;28;20398;-67
2021/03/01 01:13:12;;;;;;;94.07;84.33;;;;;;;1.91;69.38;100170.41;4999088;28;20022;-68
2021/03/01 01:15:37;;;;;;;82.37;73.90;;;;;;;1.85;69.68;100168.47;5017416;28;20348;-68
2021/03/01 01:18:04;;;;;;;81.53;73.07;;;;;;;1.83;69.74;100159.94;5017932;28;20075;-67
2021/03/01 01:20:30;;;;;;;79.57;71.57;;;;;;;1.82;70.23;100169.19;5015946;28;20056;-67
2021/03/01 01:22:56;;;;;;;85.10;76.43;;;;;;;1.83;69.88;100147.31;5017423;28;20026;-68
2021/03/01 01:25:22;;;;;;;97.67;86.63;;;;;;;1.96;69.79;100153.72;4994348;28;20026;-67
2021/03/01 01:27:47;;;;;;;100.77;89.70;;;;;;;2.13;69.60;100142.59;5017261;28;20030;-68
2021/03/01 01:30:17;;;;;;;100.70;85.07;;;;;;;2.24;68.96;100148.94;5015387;28;20118;-68
2021/03/01 01:32:43;;;;;;;99.90;88.77;;;;;;;2.25;69.01;100153.19;5016980;28;20402;-67
2021/03/01 01:35:11;;;;;;;102.43;91.13;;;;;;;2.33;69.28;100150.97;5016930;28;20117;-67
2021/03/01 01:37:38;;;;;;;88.23;79.20;;;;;;;2.40;68.53;100151.25;5016512;28;20379;-67
2021/03/01 01:40:05;;;;;;;103.27;90.30;;;;;;;2.44;68.20;100153.09;5015533;28;20045;-68
2021/03/01 01:42:31;;;;;;;101.17;89.33;;;;;;;2.33;68.15;100154.38;5016468;28;20109;-66
2021/03/01 01:44:57;;;;;;;102.03;91.10;;;;;;;2.23;68.70;100154.81;5016930;28;20422;-67
2021/03/01 01:47:23;;;;;;;102.77;90.93;;;;;;;2.01;69.20;100155.63;5015148;28;20084;-67
2021/03/01 01:49:49;;;;;;;102.27;91.10;;;;;;;1.98;69.56;100162.25;5015955;28;20037;-68
2021/03/01 01:52:14;;;;;;;97.30;86.97;;;;;;;1.90;70.49;100158.53;5015991;28;20061;-69
2021/03/01 01:54:41;;;;;;;114.30;101.20;;;;;;;1.86;70.66;100149.13;5017649;28;20374;-68
2021/03/01 01:57:06;;;;;;;106.40;94.67;;;;;;;2.09;70.42;100163.50;5015098;28;20057;-68
2021/03/01 01:59:32;;;;;;;115.63;101.47;;;;;;;2.19;69.93;100158.03;5016461;28;20060;-67
2021/03/01 02:01:58;;;;;;;128.93;110.53;;;;;;;2.09;69.99;100158.44;4994815;28;20741;-67
2021/03/01 02:04:29;;;;;;;113.73;100.93;;;;;;;2.05;69.74;100162.53;5017460;28;20017;-67
2021/03/01 02:07:09;;;;;;;109.33;97.67;;;;;;;1.81;70.11;100152.31;5014738;28;20030;-67
2021/03/01 02:10:12;;;;;;;116.17;99.60;;;;;;;1.59;71.14;100148.84;5013976;28;20278;-67
2021/03/01 02:13:04;;;;;;;106.73;94.87;;;;;;;1.48;71.35;100148.44;5016636;28;20367;-68
2021/03/01 02:15:50;;;;;;;118.77;98.07;;;;;;;1.31;72.51;100142.69;5014888;28;20129;-67
2021/03/01 02:18:16;;;;;;;97.73;86.47;;;;;;;1.18;72.55;100139.56;5012607;28;20022;-67
2021/03/01 02:20:45;;;;;;;115.43;99.30;;;;;;;1.14;72.90;100147.81;5015697;28;20032;-67
2021/03/01 02:23:11;;;;;;;119.20;99.40;;;;;;;0.98;72.70;100138.69;5015996;28;20037;-66
2021/03/01 02:25:52;;;;;;;101.33;89.77;;;;;;;0.88;73.44;100132.41;5018530;28;20381;-68
2021/03/01 02:28:22;;;;;;;106.13;87.67;;;;;;;0.80;73.97;100130.34;5018374;28;20041;-67
2021/03/01 02:30:54;;;;;;;114.80;95.33;;;;;;;0.73;74.22;100139.28;5020090;28;20176;-67
2021/03/01 02:33:23;;;;;;;105.87;88.83;;;;;;;0.64;74.61;100145.59;5020660;28;20104;-67
2021/03/01 02:35:55;;;;;;;107.50;91.23;;;;;;;0.68;74.76;100147.47;5017281;28;20041;-68
2021/03/01 02:38:25;;;;;;;118.53;96.37;;;;;;;0.61;75.12;100137.91;5018127;28;20432;-68
2021/03/01 02:40:53;;;;;;;119.37;92.83;;;;;;;0.67;75.40;100138.19;5019062;28;20096;-67
2021/03/01 02:43:20;;;;;;;102.40;86.57;;;;;;;0.70;75.08;100133.25;5019047;28;20033;-67
2021/03/01 02:45:46;;;;;;;105.10;87.67;;;;;;;0.67;75.21;100133.13;5018274;28;20033;-67
2021/03/01 02:48:13;;;;;;;105.03;88.03;;;;;;;0.59;75.46;100139.50;5019773;28;20298;-67
2021/03/01 02:50:42;;;;;;;110.33;91.60;;;;;;;0.51;75.32;100138.28;5018473;28;20030;-67
2021/03/01 02:53:08;;;;;;;99.37;81.83;;;;;;;0.47;75.71;100140.66;5018871;28;20033;-67
2021/03/01 02:55:35;;;;;;;105.20;84.67;;;;;;;0.51;75.83;100139.13;5017089;28;20300;-67
2021/03/01 02:58:01;;;;;;;109.57;88.30;;;;;;;0.70;75.87;100145.88;5018770;28;20026;-67
2021/03/01 03:00:27;;;;;;;120.03;90.23;;;;;;;0.99;75.09;100152.19;5019175;28;20065;-67
2021/03/01 03:02:55;;;;;;;106.17;86.53;;;;;;;1.15;74.79;100149.53;5018139;28;20050;-67
2021/03/01 03:05:22;;;;;;;119.27;92.90;;;;;;;1.52;73.51;100140.19;5018897;28;20117;-67
2021/03/01 03:07:49;;;;;;;123.50;96.30;;;;;;;1.65;72.96;100144.94;5018892;28;20030;-68
2021/03/01 03:10:16;;;;;;;115.93;96.13;;;;;;;1.84;72.86;100149.03;5018137;28;20061;-69
2021/03/01 03:12:43;;;;;;;118.67;101.40;;;;;;;1.87;71.95;100143.25;5016959;28;20022;-69
2021/03/01 03:15:13;;;;;;;116.33;95.23;;;;;;;1.69;72.39;100151.84;5018364;28;20038;-67
2021/03/01 03:17:39;;;;;;;115.67;93.20;;;;;;;1.84;72.06;100143.97;5016118;28;20026;-67
2021/03/01 03:20:06;;;;;;;117.03;95.60;;;;;;;1.97;71.80;100152.91;5002122;28;20065;-67
2021/03/01 03:22:32;;;;;;;109.10;92.33;;;;;;;1.91;71.58;100155.22;5018001;28;20037;-67
2021/03/01 03:24:58;;;;;;;117.57;95.40;;;;;;;1.73;72.34;100160.41;5020042;28;20025;-67
2021/03/01 03:27:23;;;;;;;106.80;93.83;;;;;;;1.58;72.80;100163.16;5018257;28;20112;-67
2021/03/01 03:29:48;;;;;;;112.13;95.40;;;;;;;1.43;73.08;100161.66;5018835;28;20457;-67
2021/03/01 03:32:14;;;;;;;96.43;84.10;;;;;;;1.43;73.68;100169.25;5017242;28;20028;-67
2021/03/01 03:34:39;;;;;;;101.13;87.17;;;;;;;1.31;73.65;100175.53;5020210;28;20334;-67
2021/03/01 03:37:09;;;;;;;109.07;94.27;;;;;;;1.23;74.36;100184.41;5018712;28;20026;-68
2021/03/01 03:39:43;;;;;;;113.20;94.93;;;;;;;1.35;74.25;100187.47;5017153;28;20302;-68
2021/03/01 03:42:11;;;;;;;119.87;100.30;;;;;;;1.42;73.84;100196.16;5017119;28;20025;-68
2021/03/01 03:44:40;;;;;;;115.93;94.80;;;;;;;1.49;73.42;100193.09;5017626;28;20037;-68
2021/03/01 03:47:06;;;;;;;113.07;94.73;;;;;;;1.56;73.26;100192.56;5017776;28;20058;-67
2021/03/01 03:49:33;;;;;;;99.43;82.70;;;;;;;1.47;73.20;100194.72;5016526;28;20037;-67
2021/03/01 03:52:00;;;;;;;114.23;94.77;;;;;;;1.52;73.10;100198.31;4998281;28;20029;-67
2021/03/01 03:54:29;;;;;;;111.30;93.43;;;;;;;1.48;73.52;100196.44;5017704;28;20057;-67
2021/03/01 03:56:57;;;;;;;126.37;100.73;;;;;;;1.48;73.69;100191.38;5018568;28;20049;-68
2021/03/01 03:59:29;;;;;;;129.07;97.90;;;;;;;1.53;73.45;100194.09;5016107;28;20084;-68
2021/03/01 04:01:56;;;;;;;115.97;97.03;;;;;;;1.49;73.07;100190.56;5017982;28;20049;-68
2021/03/01 04:04:24;;;;;;;82.27;73.33;;;;;;;1.60;73.07;100202.00;5016234;28;20020;-68
2021/03/01 04:06:51;;;;;;;89.60;80.13;;;;;;;1.69;73.04;100201.53;5018188;28;20036;-67
2021/03/01 04:09:18;;;;;;;100.33;87.53;;;;;;;1.65;72.92;100207.25;5017714;28;20029;-67
2021/03/01 04:11:47;;;;;;;104.77;89.27;;;;;;;1.60;72.61;100212.13;5017590;28;20026;-67
2021/03/01 04:14:18;;;;;;;114.80;93.83;;;;;;;1.76;72.38;100218.66;5013967;28;20125;-67
2021/03/01 04:16:56;;;;;;;117.60;93.27;;;;;;;1.60;72.99;100217.16;5016738;28;20036;-68
2021/03/01 04:19:24;;;;;;;108.30;92.23;;;;;;;1.69;72.76;100217.56;5016927;28;20034;-68
2021/03/01 04:21:55;;;;;;;86.90;77.70;;;;;;;1.70;72.34;100223.44;5017432;28;20034;-68
2021/03/01 04:24:24;;;;;;;85.77;76.33;;;;;;;1.60;72.58;100212.13;5015701;28;20374;-67
2021/03/01 04:26:50;;;;;;;89.13;78.50;;;;;;;1.72;72.16;100231.97;5018343;28;20030;-67
2021/03/01 04:29:17;;;;;;;101.80;86.23;;;;;;;1.71;72.13;100226.06;5016369;28;20056;-67
2021/03/01 04:31:46;;;;;;;78.23;70.03;;;;;;;1.83;72.28;100230.75;5015893;28;20390;-68
2021/03/01 04:34:12;;;;;;;90.70;80.87;;;;;;;1.67;72.54;100223.34;5015377;28;20033;-66
2021/03/01 04:36:39;;;;;;;101.53;87.23;;;;;;;1.77;72.15;100236.44;5017248;28;20030;-67
2021/03/01 04:39:06;;;;;;;113.70;93.03;;;;;;;1.72;71.73;100234.50;5016765;28;20102;-68
2021/03/01 04:41:36;;;;;;;124.07;96.40;;;;;;;1.59;72.44;100245.75;5016116;28;20034;-67
2021/03/01 04:44:06;;;;;;;110.47;92.47;;;;;;;1.53;73.04;100245.50;5013540;28;20030;-67
2021/03/01 04:46:33;;;;;;;126.13;103.33;;;;;;;1.48;72.60;100246.13;5017219;28;20080;-67
2021/03/01 04:49:01;;;;;;;148.43;111.70;;;;;;;1.35;73.45;100250.66;5015817;28;20383;-67
2021/03/01 04:51:28;;;;;;;76.83;68.83;;;;;;;1.28;73.27;100257.88;4994638;28;20026;-68
2021/03/01 04:53:54;;;;;;;73.60;65.87;;;;;;;1.19;73.86;100247.38;5016502;28;20061;-68
2021/03/01 04:56:20;;;;;;;69.37;61.97;;;;;;;1.18;74.12;100255.75;5016855;28;20374;-68
2021/03/01 04:58:46;;;;;;;73.23;65.43;;;;;;;1.03;74.22;100252.53;5015692;28;20366;-67
2021/03/01 05:01:14;;;;;;;86.50;76.73;;;;;;;0.97;74.73;100250.63;4996852;28;20033;-66
2021/03/01 05:03:39;;;;;;;86.40;77.37;;;;;;;0.83;75.20;100256.69;4995266;28;20027;-67
2021/03/01 05:06:05;;;;;;;101.77;86.00;;;;;;;1.02;74.68;100263.44;5015834;28;20033;-67
2021/03/01 05:08:33;;;;;;;139.00;100.00;;;;;;;1.00;75.22;100263.38;5015912;28;20025;-67
2021/03/01 05:10:59;;;;;;;131.60;95.80;;;;;;;1.12;74.61;100255.47;5015438;28;20034;-66
2021/03/01 05:13:25;;;;;;;128.13;95.17;;;;;;;1.07;74.42;100256.91;5016961;28;20084;-66
2021/03/01 05:15:50;;;;;;;111.57;88.57;;;;;;;0.97;74.89;100263.22;5015999;28;20057;-67
2021/03/01 05:18:17;;;;;;;134.63;99.03;;;;;;;0.92;75.07;100262.16;5016018;28;20107;-67
2021/03/01 05:20:42;;;;;;;160.27;101.27;;;;;;;0.84;75.07;100256.78;5015432;28;20022;-67
2021/03/01 05:23:08;;;;;;;130.33;96.90;;;;;;;0.76;75.49;100260.59;5015478;28;20029;-67
2021/03/01 05:25:33;;;;;;;86.37;73.73;;;;;;;0.66;76.15;100265.13;5015794;28;20037;-67
2021/03/01 05:28:00;;;;;;;85.13;75.63;;;;;;;0.61;76.46;100264.06;5015899;28;20030;-68
2021/03/01 05:30:25;;;;;;;90.10;73.57;;;;;;;0.60;76.31;100270.75;5014818;28;20393;-67
2021/03/01 05:32:51;;;;;;;55.43;49.60;;;;;;;0.75;76.68;100265.56;5018432;28;20029;-68
2021/03/01 05:35:16;;;;;;;70.97;63.37;;;;;;;0.81;75.47;100265.84;5016016;28;20034;-68
2021/03/01 05:37:42;;;;;;;75.20;67.27;;;;;;;0.75;75.87;100266.44;5015943;28;20057;-67
2021/03/01 05:40:08;;;;;;;65.43;58.30;;;;;;;0.93;75.62;100254.63;5015460;28;20026;-68
2021/03/01 05:42:36;;;;;;;66.03;58.10;;;;;;;1.04;75.07;100252.59;5015211;28;20065;-68
2021/03/01 05:45:05;;;;;;;86.43;73.40;;;;;;;0.96;75.39;100255.56;5015538;28;20421;-68
2021/03/01 05:47:31;;;;;;;82.57;71.20;;;;;;;0.85;75.35;100261.00;5013644;28;20085;-68
2021/03/01 05:49:59;;;;;;;81.97;69.07;;;;;;;0.85;75.90;100260.13;5014244;28;20383;-67
2021/03/01 05:52:27;;;;;;;73.77;65.83;;;;;;;0.90;75.25;100272.16;5016222;28;20113;-68
2021/03/01 05:54:53;;;;;;;70.57;61.90;;;;;;;0.83;75.59;100271.84;5015528;28;20026;-68
2021/03/01 05:57:20;;;;;;;77.10;66.23;;;;;;;0.81;75.90;100273.41;5013519;28;20053;-68
2021/03/01 05:59:49;;;;;;;66.43;59.27;;;;;;;0.80;75.69;100287.72;5019107;28;20029;-68
2021/03/01 06:02:16;;;;;;;71.80;63.87;;;;;;;0.77;76.45;100292.59;5020535;28;20022;-67
2021/03/01 06:04:42;;;;;;;72.53;64.20;;;;;;;0.76;76.11;100287.50;5019074;28;20022;-67
2021/03/01 06:07:07;;;;;;;83.10;73.23;;;;;;;0.85;76.15;100276.16;5018746;28;20041;-67
2021/03/01 06:09:33;;;;;;;78.73;67.27;;;;;;;1.01;75.77;100274.34;5020427;28;20041;-67
2021/03/01 06:11:58;;;;;;;62.20;55.10;;;;;;;1.11;75.37;100274.78;5018753;28;20052;-67
2021/03/01 06:14:24;;;;;;;52.67;46.40;;;;;;;1.12;75.18;100276.53;5016150;28;20037;-68
2021/03/01 06:17:15;;;;;;;59.93;53.73;;;;;;;1.30;75.50;100290.00;4998320;28;20068;-67
2021/03/01 06:19:55;;;;;;;44.33;33.40;;;;;;;1.32;75.31;100298.47;5018710;28;20030;-68
2021/03/01 06:22:23;;;;;;;60.73;54.17;;;;;;;1.29;75.55;100292.44;5017474;28;20117;-67
2021/03/01 06:25:21;;;;;;;59.80;53.03;;;;;;;1.68;74.38;100291.66;5018536;28;20025;-66
2021/03/01 06:27:52;;;;;;;57.53;51.70;;;;;;;1.75;73.38;100288.56;4983660;28;20049;-66
2021/03/01 06:30:23;;;;;;;42.33;38.00;;;;;;;1.84;73.48;100285.56;5019206;28;20038;-67
2021/03/01 06:33:09;;;;;;;88.60;74.33;;;;;;;1.97;73.22;100290.34;5020190;28;20038;-66
2021/03/01 06:35:37;;;;;;;;;;;;;;;2.15;72.50;100288.59;5001753;28;20100;-63
2021/03/01 06:38:24;;;;;;;87.53;76.73;;;;;;;2.16;72.94;100300.44;5019409;28;19913;-68
2021/03/01 06:41:10;;;;;;;74.93;63.67;;;;;;;2.34;72.05;100310.41;5020126;28;20044;-68
2021/03/01 06:43:38;;;;;;;89.07;79.20;;;;;;;2.48;71.60;100311.84;5018422;28;20053;-66
2021/03/01 06:46:14;;;;;;;96.57;85.67;;;;;;;2.68;70.83;100321.09;5018608;28;20040;-66
2021/03/01 06:48:41;;;;;;;88.60;79.77;;;;;;;2.71;70.40;100318.69;4984148;28;20233;-66
2021/03/01 06:51:07;;;;;;;87.83;78.63;;;;;;;2.79;70.68;100315.59;4977204;28;20041;-62
2021/03/01 06:53:34;;;;;;;71.07;64.53;;;;;;;2.92;70.58;100322.88;4979247;28;20157;-71
2021/03/01 06:56:08;;;;;;;86.33;77.57;;;;;;;3.00;70.54;100324.03;4981757;28;20034;-70
2021/03/01 06:58:36;;;;;;;90.53;81.60;;;;;;;3.05;69.99;100300.59;4980286;28;20018;-69
2021/03/01 07:01:18;;;;;;;90.60;81.23;;;;;;;3.30;69.59;100319.25;4976810;28;20058;-69
2021/03/01 07:03:46;;;;;;;88.27;79.23;;;;;;;3.41;69.54;100331.50;4978911;28;20031;-68
2021/03/01 07:06:12;;;;;;;102.40;91.33;;;;;;;3.57;68.93;100320.22;4979316;28;20114;-69
2021/03/01 07:08:48;;;;;;;93.17;83.40;;;;;;;3.75;68.44;100335.22;4979167;28;20062;-69
2021/03/01 07:11:27;;;;;;;100.80;90.67;;;;;;;3.90;67.58;100340.88;4978555;28;20027;-68
2021/03/01 07:13:59;;;;;;;77.27;70.03;;;;;;;3.86;67.61;100344.94;4979322;28;20030;-69
2021/03/01 07:16:25;;;;;;;85.33;77.10;;;;;;;3.98;67.54;100344.53;4980250;28;20163;-69
2021/03/01 07:18:51;;;;;;;84.13;75.87;;;;;;;4.05;66.95;100346.47;4978790;28;20065;-68
2021/03/01 07:21:17;;;;;;;75.10;68.60;;;;;;;4.13;66.54;100348.44;4977375;28;20118;-69
2021/03/01 07:23:47;;;;;;;76.70;69.70;;;;;;;4.37;66.09;100339.94;4979780;28;20344;-69
2021/03/01 07:26:15;;;;;;;74.47;67.90;;;;;;;4.51;65.62;100337.03;4975012;28;20047;-69
2021/03/01 07:28:43;;;;;;;78.97;72.47;;;;;;;4.68;64.90;100336.69;4978326;28;20034;-68
2021/03/01 07:31:10;;;;;;;81.43;74.40;;;;;;;4.82;64.14;100340.53;4979214;28;20296;-69
2021/03/01 07:33:37;;;;;;;81.73;74.53;;;;;;;4.99;63.81;100344.47;4978174;28;20027;-70
2021/03/01 07:36:03;;;;;;;64.63;58.87;;;;;;;5.13;63.29;100337.28;4976153;28;20618;-70
2021/03/01 07:38:30;;;;;;;76.67;70.27;;;;;;;5.30;62.10;100334.41;4981520;28;20057;-69
2021/03/01 07:40:56;;;;;;;77.43;70.03;;;;;;;5.51;61.88;100347.75;4977461;28;20353;-67
2021/03/01 07:43:23;;;;;;;85.47;78.43;;;;;;;5.68;61.25;100339.72;4980367;28;20030;-68
2021/03/01 07:45:50;;;;;;;127.47;116.83;;;;;;;5.70;61.44;100343.16;4978189;28;20061;-69
2021/03/01 07:48:17;;;;;;;140.57;128.73;;;;;;;5.82;60.66;100339.28;5011652;28;20045;-70
2021/03/01 07:50:47;;;;;;;95.67;87.93;;;;;;;5.94;60.73;100336.25;5012797;28;20048;-69
2021/03/01 07:53:49;;;;;;;71.10;64.77;;;;;;;6.08;60.66;100346.78;5017441;28;20034;-70
2021/03/01 07:56:24;;;;;;;52.00;45.60;;;;;;;6.29;60.39;100342.25;5017627;28;20030;-70
2021/03/01 07:58:58;;;;;;;51.45;38.95;;;;;;;6.26;60.41;100342.16;5013759;28;20026;-70
2021/03/01 08:01:24;;;;;;;41.17;31.80;;;;;;;6.40;60.26;100345.94;5011072;28;20065;-70
2021/03/01 08:03:49;;;;;;;39.50;35.57;;;;;;;6.42;59.90;100336.63;5014378;28;20080;-70
2021/03/01 08:06:15;;;;;;;49.33;44.27;;;;;;;6.48;59.57;100343.59;5010824;28;20068;-71
2021/03/01 08:08:44;;;;;;;32.87;27.73;;;;;;;6.61;59.66;100345.59;5014476;28;20072;-70
2021/03/01 08:11:11;;;;;;;31.43;21.23;;;;;;;6.64;59.59;100345.66;5014693;28;20286;-70
2021/03/01 08:13:38;;;;;;;27.90;22.13;;;;;;;6.82;58.81;100341.03;5016028;28;20342;-69
2021/03/01 08:16:23;;;;;;;37.63;26.07;;;;;;;6.94;58.29;100348.94;5016122;28;20021;-71
2021/03/01 08:18:57;;;;;;;34.15;27.92;;;;;;;6.98;58.30;100348.19;5015108;28;20034;-69
2021/03/01 08:21:23;;;;;;;34.67;27.07;;;;;;;7.14;58.19;100354.50;5014080;28;20029;-70
2021/03/01 08:23:49;;;;;;;36.73;29.43;;;;;;;7.03;58.06;100350.84;4999517;28;20083;-70
2021/03/01 08:26:27;;;;;;;36.50;29.60;;;;;;;6.98;58.04;100350.75;5011743;28;20029;-71
2021/03/01 08:28:55;;;;;;;37.30;27.40;;;;;;;7.09;57.94;100356.94;5012831;28;20036;-69
2021/03/01 08:31:24;;;;;;;35.43;31.63;;;;;;;7.04;57.98;100348.34;4998139;28;20022;-70
2021/03/01 08:33:49;;;;;;;32.03;23.30;;;;;;;7.32;57.58;100347.25;4993314;28;20052;-70
2021/03/01 08:36:15;;;;;;;44.63;36.27;;;;;;;7.30;57.48;100349.75;5014484;28;20022;-70
2021/03/01 08:38:40;;;;;;;39.03;33.03;;;;;;;7.39;56.92;100349.09;5019798;28;20036;-71
2021/03/01 08:41:07;;;;;;;39.37;26.13;;;;;;;7.38;57.19;100349.09;5017351;28;20051;-70
2021/03/01 08:43:39;;;;;;;35.67;22.60;;;;;;;7.47;57.30;100354.38;5016598;28;20022;-70
2021/03/01 08:46:06;;;;;;;38.27;23.13;;;;;;;7.49;56.82;100353.56;5016278;28;20075;-71
2021/03/01 08:48:39;;;;;;;37.50;23.53;;;;;;;7.37;57.45;100349.91;4995513;28;20047;-70
2021/03/01 08:51:05;;;;;;;39.23;27.33;;;;;;;7.49;57.42;100345.91;4996344;28;20427;-70
2021/03/01 08:53:30;;;;;;;36.10;24.00;;;;;;;7.61;57.35;100341.06;4997575;28;20102;-70
2021/03/01 08:55:59;;;;;;;34.47;23.03;;;;;;;7.62;57.09;100347.03;4997725;28;20375;-70
2021/03/01 08:58:29;;;;;;;36.13;23.20;;;;;;;7.79;56.63;100344.00;4992149;28;20129;-70
2021/03/01 09:00:58;;;;;;;40.57;30.60;;;;;;;7.82;56.77;100345.72;4996891;28;20049;-70
2021/03/01 09:03:37;;;;;;;42.60;24.97;;;;;;;7.92;56.55;100344.22;4997733;28;20390;-70
2021/03/01 09:06:12;;;;;;;37.27;24.17;;;;;;;8.05;55.98;100339.38;4997475;28;20086;-70
2021/03/01 09:08:52;;;;;;;38.00;20.90;;;;;;;8.05;56.14;100334.28;4996713;28;20152;-70
2021/03/01 09:11:39;;;;;;;31.83;22.67;;;;;;;8.02;56.50;100330.81;4995762;28;20058;-71
2021/03/01 09:14:07;;;;;;;34.33;22.53;;;;;;;8.04;56.21;100327.44;4996587;28;20049;-71
2021/03/01 09:16:34;;;;;;;30.03;18.20;;;;;;;8.10;55.46;100332.66;4996939;28;20026;-70
2021/03/01 09:19:05;;;;;;;32.30;20.57;;;;;;;8.06;56.00;100328.31;4995408;28;20057;-71
2021/03/01 09:21:38;;;;;;;34.87;23.00;;;;;;;8.34;55.53;100339.06;4995855;28;20030;-71
2021/03/01 09:24:04;;;;;;;32.37;17.67;;;;;;;8.29;54.99;100336.44;4996510;28;20022;-71
2021/03/01 09:26:36;;;;;;;38.00;23.23;;;;;;;8.61;54.35;100336.97;4996446;28;20038;-70
2021/03/01 09:29:13;;;;;;;34.57;23.07;;;;;;;8.55;55.58;100329.19;4994330;28;20049;-70
2021/03/01 09:31:41;;;;;;;36.30;18.67;;;;;;;8.51;54.51;100328.28;4997205;28;20038;-71
2021/03/01 09:34:07;;;;;;;34.27;16.43;;;;;;;8.74;54.07;100325.25;4997130;28;20065;-70
2021/03/01 09:36:34;;;;;;;35.00;16.70;;;;;;;8.81;53.62;100327.06;4994994;28;20547;-73
2021/03/01 09:39:00;;;;;;;33.43;17.17;;;;;;;8.64;53.94;100326.78;4997163;28;20037;-71
2021/03/01 09:41:32;;;;;;;24.33;15.07;;;;;;;8.66;54.52;100330.22;4997057;28;20034;-71
2021/03/01 09:43:58;;;;;;;30.27;17.07;;;;;;;8.68;54.42;100320.88;4996841;28;20030;-72
2021/03/01 09:46:26;;;;;;;28.53;16.63;;;;;;;8.93;53.60;100324.69;4997222;28;20073;-71
2021/03/01 09:48:55;;;;;;;37.83;21.27;;;;;;;8.91;54.56;100311.84;4992486;28;20037;-71
2021/03/01 09:51:22;;;;;;;33.10;19.90;;;;;;;8.70;56.43;100327.72;4998449;28;20045;-71
2021/03/01 09:53:48;;;;;;;34.40;20.03;;;;;;;8.78;56.62;100333.00;5016396;28;20030;-70
2021/03/01 09:56:16;;;;;;;28.53;16.80;;;;;;;8.63;57.07;100319.94;5017321;28;20362;-69
2021/03/01 09:58:43;;;;;;;36.03;21.03;;;;;;;8.71;57.58;100324.34;4998842;28;20049;-71
2021/03/01 10:01:18;;;;;;;38.50;24.50;;;;;;;8.80;56.87;100320.22;4998402;28;20026;-70
2021/03/01 10:03:47;;;;;;;32.17;16.53;;;;;;;8.74;56.56;100323.56;5016637;28;20034;-70
2021/03/01 10:06:15;;;;;;;38.20;19.70;;;;;;;8.57;57.70;100322.44;5014941;28;20286;-71
2021/03/01 10:08:41;;;;;;;40.60;24.43;;;;;;;8.61;57.75;100327.59;4996566;28;20041;-70
2021/03/01 10:11:21;;;;;;;32.40;18.63;;;;;;;8.81;56.85;100324.50;5015590;28;20076;-70
2021/03/01 10:13:48;;;;;;;39.87;23.23;;;;;;;8.68;57.61;100331.13;5016787;28;20030;-71
2021/03/01 10:16:26;;;;;;;32.80;19.13;;;;;;;8.58;57.30;100334.34;5016638;28;20275;-69
2021/03/01 10:18:53;;;;;;;36.13;20.53;;;;;;;8.76;56.73;100321.88;4995528;28;20093;-69
2021/03/01 10:21:30;;;;;;;31.17;17.83;;;;;;;8.69;57.30;100313.25;5015588;28;20030;-70
2021/03/01 10:24:01;;;;;;;30.20;16.97;;;;;;;8.74;57.42;100323.56;5016224;28;20297;-70
2021/03/01 10:26:27;;;;;;;36.77;20.20;;;;;;;8.73;57.23;100316.72;4997896;28;20029;-70
2021/03/01 10:29:02;;;;;;;42.37;20.83;;;;;;;8.91;56.65;100324.63;5014818;28;20036;-70
2021/03/01 10:31:37;;;;;;;34.87;19.67;;;;;;;8.91;56.30;100326.38;5015008;28;20025;-70
2021/03/01 10:34:06;;;;;;;36.90;19.30;;;;;;;8.84;56.72;100324.53;5016301;28;20059;-70
2021/03/01 10:36:33;;;;;;;35.97;17.37;;;;;;;8.93;57.57;100324.69;5015305;28;20107;-70
2021/03/01 10:39:14;;;;;;;32.33;19.80;;;;;;;9.15;57.67;100322.47;4998643;28;20410;-70
2021/03/01 10:41:48;;;;;;;39.43;18.77;;;;;;;9.20;55.98;100322.53;5015553;28;20063;-71
2021/03/01 10:44:15;;;;;;;38.57;19.57;;;;;;;9.16;57.53;100324.16;5014721;28;20060;-71
2021/03/01 10:46:49;;;;;;;37.00;19.60;;;;;;;9.32;55.98;100316.69;5010850;28;20053;-70
2021/03/01 10:49:18;;;;;;;40.03;18.13;;;;;;;9.29;56.68;100325.22;5000688;28;20018;-70
2021/03/01 10:51:44;;;;;;;37.93;18.83;;;;;;;9.41;55.73;100329.63;5020842;28;20069;-69
2021/03/01 10:54:11;;;;;;;33.57;18.40;;;;;;;9.49;55.42;100335.69;5018826;28;20069;-69
2021/03/01 10:56:37;;;;;;;38.73;18.77;;;;;;;9.43;55.08;100331.34;5018689;28;20033;-70
2021/03/01 10:59:03;;;;;;;34.57;18.23;;;;;;;9.44;55.14;100329.66;5000262;28;20033;-71
2021/03/01 11:01:33;;;;;;;30.20;15.73;;;;;;;9.31;55.33;100330.31;5013017;28;20390;-71
2021/03/01 11:03:59;;;;;;;33.37;17.10;;;;;;;9.20;55.71;100329.34;5017701;28;20021;-70
2021/03/01 11:06:25;;;;;;;41.47;17.67;;;;;;;9.35;55.96;100329.53;5017102;28;20021;-71
2021/03/01 11:08:50;;;;;;;31.80;18.00;;;;;;;9.33;55.56;100334.66;5018341;28;20026;-71
2021/03/01 11:11:16;;;;;;;40.13;19.23;;;;;;;9.40;56.30;100325.34;5000014;28;20108;-71
2021/03/01 11:13:41;;;;;;;33.40;16.93;;;;;;;9.45;55.80;100324.56;5000084;28;20275;-71
2021/03/01 11:16:06;;;;;;;32.90;16.80;;;;;;;9.46;55.37;100322.88;5018173;28;20022;-71
2021/03/01 11:18:32;;;;;;;33.07;18.23;;;;;;;9.44;55.43;100325.41;5018115;28;20038;-71
2021/03/01 11:20:57;;;;;;;38.67;17.97;;;;;;;9.42;55.54;100326.22;5016827;28;20044;-71